createdAt,value
2023-03-15T00:00:41.624Z,75.25
2023-03-15T00:07:01.578Z,75.34
2023-03-15T00:13:24.596Z,75.62
2023-03-15T00:19:44.682Z,74.86
2023-03-15T00:26:07.582Z,75.34
2023-03-15T00:32:27.762Z,75.71
2023-03-15T00:38:50.662Z,75.5
2023-03-15T00:45:10.749Z,75.56
2023-03-15T00:51:33.611Z,75.62
2023-03-15T00:57:53.655Z,75.22
2023-03-15T01:04:16.642Z,74.91
2023-03-15T01:10:36.597Z,75.2
2023-03-15T01:16:59.619Z,75.43
2023-03-15T01:23:19.618Z,75.27
2023-03-15T01:29:42.651Z,75.23
2023-03-15T01:36:02.707Z,75.07
2023-03-15T01:42:25.582Z,75.09
2023-03-15T01:48:45.617Z,74.68
2023-03-15T01:55:08.605Z,74.69
2023-03-15T02:01:28.614Z,75.89
2023-03-15T02:07:51.578Z,78.99
2023-03-15T02:14:11.696Z,80.34
2023-03-15T02:20:34.613Z,83.12
2023-03-15T02:26:54.731Z,84.48
2023-03-15T02:33:17.603Z,85.39
2023-03-15T02:39:37.583Z,86.25
2023-03-15T02:46:00.668Z,86.75
2023-03-15T02:52:20.664Z,86.92
2023-03-15T02:58:43.589Z,87.43
2023-03-15T03:05:03.587Z,86.99
2023-03-15T03:11:26.693Z,85.96
2023-03-15T03:17:46.660Z,86.27
2023-03-15T03:24:09.603Z,87.78
2023-03-15T03:30:29.709Z,88.19
2023-03-15T03:36:52.648Z,88.2
2023-03-15T03:43:12.724Z,88.19
2023-03-15T03:49:35.590Z,87.32
2023-03-15T03:55:55.665Z,86.5
2023-03-15T04:02:18.636Z,87.52
2023-03-15T04:08:38.647Z,87.08
2023-03-15T04:31:44.682Z,87.13
2023-03-15T04:38:07.663Z,87.11
2023-03-15T04:44:27.700Z,86.74
2023-03-15T04:50:50.671Z,86.89
2023-03-15T04:57:10.663Z,86.48
2023-03-15T05:03:33.606Z,86.97
2023-03-15T05:09:53.618Z,87.23
2023-03-15T05:16:16.625Z,87.69
2023-03-15T05:22:36.596Z,88.35
2023-03-15T05:28:59.654Z,88.41
2023-03-15T05:35:19.565Z,87.41
2023-03-15T05:41:42.640Z,87.52
2023-03-15T05:48:02.675Z,86.78
2023-03-15T05:54:25.638Z,86.75
2023-03-15T06:00:45.620Z,86.86
2023-03-15T06:07:08.669Z,87.05
2023-03-15T06:13:28.635Z,87.14
2023-03-15T06:19:51.624Z,87.25
2023-03-15T06:26:11.604Z,87.91
2023-03-15T06:32:34.668Z,88.02
2023-03-15T06:38:54.646Z,87.81
2023-03-15T06:45:17.687Z,87.92
2023-03-15T06:51:37.551Z,87.83
2023-03-15T06:58:00.624Z,87.47
2023-03-15T07:04:20.655Z,87.56
2023-03-15T07:10:44.644Z,87.81
2023-03-15T07:17:04.697Z,87.93
2023-03-15T07:23:27.607Z,87.91
2023-03-15T07:29:47.638Z,88
2023-03-15T07:36:10.684Z,87.61
2023-03-15T07:42:30.594Z,87.27
2023-03-15T07:48:54.283Z,87.41
2023-03-15T07:55:14.614Z,87.28
2023-03-15T08:01:37.692Z,87.21
2023-03-15T08:07:57.693Z,87.61
2023-03-15T08:14:20.566Z,87.77
2023-03-15T08:20:40.714Z,87.93
2023-03-15T08:27:03.829Z,87.06
2023-03-15T08:33:23.733Z,86.74
2023-03-15T08:39:46.620Z,87.03
2023-03-15T08:46:06.647Z,86.79
2023-03-15T08:52:29.596Z,86.37
2023-03-15T08:58:49.602Z,86.23
2023-03-15T09:05:12.582Z,85.49
2023-03-15T09:29:11.537Z,84.2
2023-03-15T09:35:31.605Z,83.08
2023-03-15T09:41:54.601Z,83.85
2023-03-15T09:48:14.594Z,80.7
2023-03-15T09:54:37.608Z,80.78
2023-03-15T10:00:57.644Z,80.31
2023-03-15T10:07:20.637Z,80.93
2023-03-15T10:13:40.600Z,78.3
2023-03-15T10:20:03.626Z,77.63
2023-03-15T10:26:23.746Z,76.21
2023-03-15T10:32:46.698Z,73.96
2023-03-15T10:39:06.605Z,72.99
2023-03-15T10:45:29.732Z,72.59
2023-03-15T10:51:49.590Z,71.99
2023-03-15T10:58:12.609Z,68.14
2023-03-15T11:04:34.364Z,69.07
2023-03-15T11:10:55.829Z,67.32
2023-03-15T11:17:15.692Z,68.31
2023-03-15T11:23:38.621Z,66.52
2023-03-15T11:29:58.587Z,66.02
2023-03-15T11:36:21.597Z,61.31
2023-03-15T11:42:41.667Z,62.78
2023-03-15T11:49:04.600Z,65.81
2023-03-15T11:55:24.583Z,60.81
2023-03-15T12:01:47.752Z,59.69
2023-03-15T12:08:07.606Z,57.34
2023-03-15T12:14:30.641Z,57.47
2023-03-15T12:20:50.644Z,59.85
2023-03-15T12:27:13.590Z,60.42
2023-03-15T12:33:33.610Z,58.05
2023-03-15T12:39:56.602Z,56.43
2023-03-15T12:46:16.632Z,56.91
2023-03-15T12:52:39.598Z,60.34
2023-03-15T12:58:59.633Z,63.56
2023-03-15T13:05:22.603Z,64.35
2023-03-15T13:11:42.576Z,65.16
2023-03-15T13:18:05.641Z,65.6
2023-03-15T13:24:25.606Z,65.6
2023-03-15T13:30:48.636Z,61.56
2023-03-15T13:37:08.747Z,61.92
2023-03-15T13:43:31.820Z,62.6
2023-03-15T13:49:51.630Z,63.99
2023-03-15T13:56:14.603Z,62.13
2023-03-15T14:02:34.608Z,62.74
2023-03-15T14:08:57.608Z,60.79
2023-03-15T14:15:18.703Z,58.12
2023-03-15T14:21:41.766Z,56.26
2023-03-15T14:45:24.650Z,57.07
2023-03-15T14:51:44.585Z,54.46
2023-03-15T14:58:07.587Z,53.76
2023-03-15T15:04:27.601Z,53.96
2023-03-15T15:10:50.569Z,53.4
2023-03-15T15:17:10.578Z,53.72
2023-03-15T15:23:33.669Z,51.45
2023-03-15T15:29:53.599Z,53.67
2023-03-15T15:36:16.611Z,54.53
2023-03-15T15:42:36.662Z,53.72
2023-03-15T15:48:59.598Z,55.69
2023-03-15T15:55:19.580Z,54.29
2023-03-15T16:01:57.143Z,52.32
2023-03-15T16:08:02.596Z,55.09
2023-03-15T16:14:25.613Z,56.63
2023-03-15T16:20:45.659Z,57.48
2023-03-15T16:27:08.637Z,56.89
2023-03-15T16:33:28.783Z,57.26
2023-03-15T16:39:51.633Z,56.76
2023-03-15T16:46:11.681Z,57.19
2023-03-15T16:52:34.597Z,58.6
2023-03-15T16:58:54.592Z,60.77
2023-03-15T17:05:17.627Z,61.42
2023-03-15T17:11:37.605Z,62.24
2023-03-15T17:18:00.743Z,63.24
2023-03-15T17:24:20.584Z,64.81
2023-03-15T17:30:43.598Z,66.41
2023-03-15T17:37:05.338Z,67.2
2023-03-15T17:43:29.838Z,68.03
2023-03-15T17:49:49.965Z,70.11
2023-03-15T17:56:12.637Z,70
2023-03-15T18:02:32.860Z,71.02
2023-03-15T18:08:55.608Z,71.4
2023-03-15T18:15:15.656Z,71.8
2023-03-15T18:21:38.627Z,72.73
2023-03-15T18:27:58.631Z,73.39
2023-03-15T18:34:21.707Z,74.32
2023-03-15T18:40:41.576Z,74.55
2023-03-15T18:47:06.188Z,74.4
2023-03-15T18:53:24.700Z,75.24
2023-03-15T18:59:47.618Z,75.68
2023-03-15T19:06:07.629Z,75.71
2023-03-15T19:12:30.617Z,76.64
2023-03-15T19:18:50.605Z,76.61
2023-03-15T19:25:13.621Z,76.8
2023-03-15T19:31:33.609Z,76.28
2023-03-15T19:37:56.600Z,76.08
2023-03-15T19:55:25.594Z,76
2023-03-15T20:01:48.582Z,76.69
2023-03-15T20:08:08.604Z,77.08
2023-03-15T20:14:31.584Z,77.63
2023-03-15T20:20:51.588Z,77.51
2023-03-15T20:27:14.650Z,77.64
2023-03-15T20:33:34.591Z,77.71
2023-03-15T20:39:57.611Z,77.76
2023-03-15T20:46:17.610Z,78.38
2023-03-15T20:52:41.419Z,78.78
2023-03-15T20:59:02.596Z,79.27
2023-03-15T21:05:25.631Z,79.5
2023-03-15T21:11:45.739Z,79.56
2023-03-15T21:18:08.637Z,80.01
2023-03-15T21:24:28.588Z,80.53
2023-03-15T21:30:51.679Z,80.3
2023-03-15T21:37:11.591Z,79.97
2023-03-15T21:43:34.609Z,80.21
2023-03-15T21:49:54.671Z,80.24
2023-03-15T21:56:17.643Z,80.46
2023-03-15T22:02:37.645Z,80.63
2023-03-15T22:09:00.629Z,80.84
2023-03-15T22:15:20.548Z,81.08
2023-03-15T22:21:43.668Z,81.09
2023-03-15T22:28:03.635Z,81.31
2023-03-15T22:34:26.598Z,81.22
2023-03-15T22:40:46.592Z,80.91
2023-03-15T22:47:09.648Z,80.88
2023-03-15T22:53:29.640Z,81.13
2023-03-15T22:59:52.664Z,81.18
2023-03-15T23:22:50.592Z,80.96
2023-03-15T23:29:10.719Z,81.1
2023-03-15T23:35:33.580Z,80.86
2023-03-15T23:41:53.627Z,80.51
2023-03-15T23:48:16.662Z,80.12
2023-03-15T23:54:36.587Z,80.2
